Time;durP1;ratioP1;P1;durP2;ratioP2;P2;SDS_P1;SDS_P2;PMS_P1;PMS_P2;Temp;Humidity;BMP_temperature;BMP_pressure;BME280_temperature;BME280_humidity;BME280_pressure;Samples;Min_cycle;Max_cycle;Signal;HPM_P1;HPM_P2
2023/06/11 00:00:27;;;;;;;15.77;10.95;;;;;;;22.24;54.80;99847.81;5071371;28;20496;-83
2023/06/11 00:02:54;;;;;;;13.40;9.27;;;;;;;22.24;55.07;99853.38;5072247;28;20044;-82
2023/06/11 00:05:24;;;;;;;13.95;9.07;;;;;;;22.24;54.87;99851.41;5071331;28;20483;-81
2023/06/11 00:07:50;;;;;;;15.10;10.15;;;;;;;22.26;54.70;99846.34;5071684;28;20103;-79
2023/06/11 00:10:16;;;;;;;13.13;9.98;;;;;;;22.23;54.92;99855.34;5072226;28;20501;-80
2023/06/11 00:12:41;;;;;;;17.30;10.00;;;;;;;22.18;54.42;99852.78;5072634;28;20028;-80
2023/06/11 00:15:07;;;;;;;14.45;10.15;;;;;;;22.18;54.33;99847.22;5072478;28;20035;-79
2023/06/11 00:17:33;;;;;;;14.82;10.02;;;;;;;22.19;54.37;99853.59;5072955;28;20385;-80
2023/06/11 00:20:01;;;;;;;16.75;9.68;;;;;;;22.16;54.49;99850.34;5072691;28;20170;-79
2023/06/11 00:22:26;;;;;;;16.83;9.70;;;;;;;22.13;54.40;99844.69;5072569;28;20029;-79
2023/06/11 00:24:52;;;;;;;12.70;8.63;;;;;;;22.02;54.26;99856.22;5072620;28;20117;-80
2023/06/11 00:27:17;;;;;;;13.73;9.47;;;;;;;22.01;54.20;99840.69;5071931;28;20113;-79
2023/06/11 00:29:42;;;;;;;14.40;9.23;;;;;;;22.06;53.92;99836.09;5071791;28;20784;-81
2023/06/11 00:32:08;;;;;;;13.73;9.40;;;;;;;21.99;54.03;99850.50;5070850;28;20125;-85
2023/06/11 00:34:33;;;;;;;13.13;8.88;;;;;;;22.03;53.59;99845.91;5072732;28;20029;-85
2023/06/11 00:36:59;;;;;;;11.13;8.27;;;;;;;22.04;53.35;99842.81;5073323;28;20618;-86
2023/06/11 00:39:24;;;;;;;12.57;9.25;;;;;;;22.08;53.45;99847.66;5072412;28;20262;-85
2023/06/11 00:41:51;;;;;;;12.70;9.37;;;;;;;22.00;53.67;99838.25;5073220;28;20031;-85
2023/06/11 00:44:21;;;;;;;15.35;9.65;;;;;;;22.02;53.60;99841.50;5073378;28;20060;-87
2023/06/11 00:46:48;;;;;;;14.55;9.18;;;;;;;22.03;53.43;99841.16;5073120;28;20028;-85
2023/06/11 00:49:14;;;;;;;13.50;8.82;;;;;;;21.99;53.59;99840.22;5072694;28;20115;-85
2023/06/11 00:51:41;;;;;;;13.15;9.13;;;;;;;21.98;53.52;99844.16;5073062;28;20048;-86
2023/06/11 00:54:13;;;;;;;18.17;9.68;;;;;;;21.92;53.36;99842.75;5072795;28;20032;-85
2023/06/11 00:56:45;;;;;;;13.57;8.50;;;;;;;21.95;53.45;99850.38;5073194;28;21230;-85
2023/06/11 00:59:13;;;;;;;17.92;9.15;;;;;;;21.97;53.42;99853.63;5072630;28;20028;-85
2023/06/11 01:01:41;;;;;;;17.95;10.32;;;;;;;21.89;53.50;99857.28;5074656;28;20032;-85
2023/06/11 01:04:17;;;;;;;14.63;9.20;;;;;;;21.89;53.77;99857.28;5075462;28;20029;-86
2023/06/11 01:06:46;;;;;;;15.80;9.77;;;;;;;21.79;54.91;99845.44;5074944;28;20040;-86
2023/06/11 01:09:12;;;;;;;15.40;9.75;;;;;;;21.77;55.63;99847.72;5074898;28;20028;-84
2023/06/11 01:11:38;;;;;;;19.55;10.77;;;;;;;21.74;56.19;99844.84;5075124;28;20021;-84
2023/06/11 01:14:05;;;;;;;13.13;9.88;;;;;;;21.63;56.61;99852.75;5075034;28;20025;-84
2023/06/11 01:16:44;;;;;;;16.70;9.70;;;;;;;21.61;56.25;99847.53;5075200;28;20025;-85
2023/06/11 01:19:22;;;;;;;14.77;10.40;;;;;;;21.60;56.35;99845.91;5074887;28;20086;-84
2023/06/11 01:21:56;;;;;;;12.82;10.10;;;;;;;21.49;56.78;99842.75;5075109;28;20036;-84
2023/06/11 01:24:40;;;;;;;13.68;10.10;;;;;;;21.49;56.64;99842.75;5075036;28;20028;-84
2023/06/11 01:27:15;;;;;;;16.05;10.20;;;;;;;21.44;55.92;99848.47;5074398;28;20033;-85
2023/06/11 01:29:45;;;;;;;15.18;9.18;;;;;;;21.49;55.51;99839.97;5074657;28;20039;-84
2023/06/11 01:32:12;;;;;;;12.00;8.05;;;;;;;21.57;54.62;99841.88;5074971;28;20032;-84
2023/06/11 01:34:41;;;;;;;11.85;9.10;;;;;;;21.58;54.28;99843.47;5073867;28;20439;-84
2023/06/11 01:37:11;;;;;;;14.07;9.38;;;;;;;21.55;54.68;99849.72;5074625;28;20390;-84
2023/06/11 01:39:37;;;;;;;12.13;8.60;;;;;;;21.60;54.18;99839.56;5073195;28;20492;-85
2023/06/11 01:42:02;;;;;;;11.07;8.00;;;;;;;21.60;54.13;99837.59;5074651;28;20056;-85
2023/06/11 01:44:28;;;;;;;13.23;8.75;;;;;;;21.65;53.62;99842.94;5074707;28;20104;-84
2023/06/11 01:46:53;;;;;;;15.32;9.30;;;;;;;21.64;54.02;99840.50;5074143;28;20647;-84
2023/06/11 01:49:18;;;;;;;14.35;9.43;;;;;;;21.63;53.86;99833.31;5074114;28;20028;-84
2023/06/11 01:51:44;;;;;;;11.77;7.97;;;;;;;21.67;53.60;99839.81;5073906;28;20045;-84
2023/06/11 01:54:09;;;;;;;12.15;8.07;;;;;;;21.68;53.54;99839.47;5074554;28;20050;-85
2023/06/11 01:56:35;;;;;;;15.77;8.18;;;;;;;21.66;53.59;99843.75;5074660;28;20024;-85
2023/06/11 01:59:00;;;;;;;12.57;7.88;;;;;;;21.65;53.63;99836.56;5074255;28;20496;-85
2023/06/11 02:01:28;;;;;;;11.83;8.27;;;;;;;21.60;53.68;99845.91;5073827;28;20089;-85
2023/06/11 02:03:54;;;;;;;13.90;9.00;;;;;;;21.63;53.82;99858.28;5073777;28;20333;-85
2023/06/11 02:06:19;;;;;;;11.52;8.05;;;;;;;21.59;54.53;99860.94;5074115;28;20103;-85
2023/06/11 02:08:45;;;;;;;13.93;9.82;;;;;;;21.45;55.88;99859.25;5074059;28;20029;-85
2023/06/11 02:11:10;;;;;;;16.13;11.00;;;;;;;21.32;57.01;99858.34;5074429;28;20024;-85
2023/06/11 02:13:35;;;;;;;16.35;11.48;;;;;;;21.14;57.96;99863.16;5073943;28;20496;-85
2023/06/11 02:16:01;;;;;;;16.03;10.70;;;;;;;21.09;58.45;99868.91;5073864;28;20354;-85
2023/06/11 02:18:26;;;;;;;17.60;11.10;;;;;;;21.00;58.43;99868.94;5072323;28;20348;-84
2023/06/11 02:20:51;;;;;;;20.47;11.23;;;;;;;20.93;58.87;99863.88;5074045;28;20017;-84
2023/06/11 02:23:17;;;;;;;17.53;11.77;;;;;;;20.93;58.79;99860.31;5072169;28;20289;-80
2023/06/11 02:25:43;;;;;;;15.48;9.38;;;;;;;20.91;58.65;99871.72;5073133;28;20742;-80
2023/06/11 02:28:08;;;;;;;15.20;10.35;;;;;;;20.92;58.34;99861.47;5072819;28;20029;-80
2023/06/11 02:30:33;;;;;;;18.80;10.05;;;;;;;20.94;58.35;99864.72;5072978;28;20673;-80
2023/06/11 02:32:59;;;;;;;14.63;9.77;;;;;;;21.01;57.58;99876.13;5072765;28;20381;-80
2023/06/11 02:35:24;;;;;;;18.67;8.95;;;;;;;21.03;56.87;99870.25;5072815;28;20041;-80
2023/06/11 02:37:49;;;;;;;12.60;8.98;;;;;;;21.09;56.46;99866.94;5072720;28;20016;-78
2023/06/11 02:40:15;;;;;;;11.57;8.55;;;;;;;;;;5072340;28;20025;-80
2023/06/11 02:42:40;;;;;;;13.77;8.63;;;;;;;21.11;56.16;99864.66;5072786;28;20032;-80
2023/06/11 02:45:06;;;;;;;14.63;9.75;;;;;;;21.15;56.00;99873.13;5072660;28;20059;-79
2023/06/11 02:47:31;;;;;;;12.90;8.68;;;;;;;21.18;56.14;99872.44;5072633;28;20086;-80
2023/06/11 02:49:56;;;;;;;14.30;9.63;;;;;;;21.13;56.13;99866.28;5072505;28;20078;-80
2023/06/11 02:52:21;;;;;;;18.92;10.13;;;;;;;21.16;56.02;99868.38;5072288;28;20842;-80
2023/06/11 02:54:47;;;;;;;11.20;9.07;;;;;;;21.15;56.07;99867.59;5072755;28;20036;-79
2023/06/11 02:57:12;;;;;;;12.37;9.53;;;;;;;21.07;56.39;99857.34;5072425;28;20257;-80
2023/06/11 02:59:37;;;;;;;13.10;9.27;;;;;;;21.04;56.63;99864.38;5072390;28;20623;-79
2023/06/11 03:02:02;;;;;;;11.53;8.37;;;;;;;21.05;56.45;99867.97;5071589;28;20261;-81
2023/06/11 03:04:28;;;;;;;13.13;9.47;;;;;;;21.01;56.76;99865.03;5072665;28;20032;-80
2023/06/11 03:06:53;;;;;;;14.03;10.23;;;;;;;21.00;57.03;99866.19;5072453;28;20297;-80
2023/06/11 03:09:18;;;;;;;14.27;9.90;;;;;;;20.97;57.32;99858.53;5072394;28;20258;-80
2023/06/11 03:11:43;;;;;;;15.07;9.85;;;;;;;20.90;57.29;99863.75;5072121;28;20032;-81
2023/06/11 03:14:09;;;;;;;16.13;10.07;;;;;;;20.87;57.86;99866.03;5072321;28;20060;-80
2023/06/11 03:16:34;;;;;;;15.33;9.87;;;;;;;20.85;57.58;99868.31;5072464;28;20044;-79
2023/06/11 03:18:59;;;;;;;14.20;10.07;;;;;;;20.84;57.78;99866.72;5072114;28;20245;-80
2023/06/11 03:21:25;;;;;;;15.63;10.30;;;;;;;20.83;57.83;99870.63;5072660;28;20288;-80
2023/06/11 03:23:50;;;;;;;15.70;10.35;;;;;;;20.77;58.12;99867.22;5073381;28;20329;-86
2023/06/11 03:26:15;;;;;;;12.93;10.03;;;;;;;20.68;58.66;99865.63;5073020;28;20029;-84
2023/06/11 03:28:40;;;;;;;16.53;10.80;;;;;;;20.70;58.47;99866.13;5072789;28;20035;-84
2023/06/11 03:31:06;;;;;;;15.30;9.20;;;;;;;20.67;58.13;99869.53;5072837;28;20308;-84
2023/06/11 03:33:31;;;;;;;12.40;8.52;;;;;;;20.67;57.79;99867.59;5073136;28;20028;-85
2023/06/11 03:35:56;;;;;;;15.10;9.17;;;;;;;20.68;57.56;99868.41;5076253;28;20017;-84
2023/06/11 03:38:22;;;;;;;12.37;8.67;;;;;;;20.69;57.53;99870.00;5076617;28;20717;-84
2023/06/11 03:40:47;;;;;;;18.02;7.93;;;;;;;20.67;57.18;99878.66;5077023;28;20013;-84
2023/06/11 03:43:13;;;;;;;19.08;9.07;;;;;;;20.76;57.06;99870.34;5076925;28;20052;-84
2023/06/11 03:45:38;;;;;;;11.35;8.02;;;;;;;20.80;56.72;99873.25;5076940;28;20033;-84
2023/06/11 03:48:04;;;;;;;15.98;8.68;;;;;;;20.82;56.64;99877.31;5078153;28;20466;-85
2023/06/11 03:50:30;;;;;;;14.80;9.63;;;;;;;20.85;56.67;99878.59;5076714;28;20051;-85
2023/06/11 03:52:55;;;;;;;13.27;7.90;;;;;;;20.87;56.87;99871.56;5076390;28;20051;-85
2023/06/11 03:55:20;;;;;;;16.13;8.93;;;;;;;20.91;56.38;99865.38;5076476;28;20021;-84
2023/06/11 03:57:45;;;;;;;12.98;8.27;;;;;;;20.93;56.53;99863.09;5076017;28;20032;-84
2023/06/11 04:00:11;;;;;;;15.37;9.87;;;;;;;20.93;56.30;99874.19;5075020;28;20024;-84
2023/06/11 04:02:37;;;;;;;14.35;8.35;;;;;;;20.95;56.12;99871.88;5072176;28;20407;-85
2023/06/11 04:05:03;;;;;;;12.63;7.80;;;;;;;20.94;56.49;99875.78;5076108;28;20464;-84
2023/06/11 04:07:28;;;;;;;12.88;8.57;;;;;;;20.97;56.27;99869.63;5075915;28;20044;-84
2023/06/11 04:09:54;;;;;;;12.95;9.20;;;;;;;20.91;56.37;99876.47;5075787;28;20056;-83
2023/06/11 04:12:19;;;;;;;12.35;7.40;;;;;;;20.89;56.48;99874.00;5075310;28;20028;-84
2023/06/11 04:14:44;;;;;;;15.30;10.27;;;;;;;20.93;56.43;99874.97;5075672;28;20054;-84
2023/06/11 04:17:10;;;;;;;12.60;8.13;;;;;;;20.97;57.01;99884.28;5076082;28;20028;-85
2023/06/11 04:19:35;;;;;;;12.25;8.35;;;;;;;20.96;56.63;99884.59;5075317;28;20261;-84
2023/06/11 04:22:01;;;;;;;12.90;8.80;;;;;;;20.91;56.85;99876.47;5075914;28;20040;-84
2023/06/11 04:24:26;;;;;;;16.60;9.27;;;;;;;20.86;56.65;99883.81;5075622;28;20051;-84
2023/06/11 04:26:51;;;;;;;14.03;8.37;;;;;;;20.88;56.96;99887.06;5075776;28;20741;-82
2023/06/11 04:29:18;;;;;;;12.70;8.30;;;;;;;20.87;56.87;99885.44;5074639;28;20024;-85
2023/06/11 04:31:46;;;;;;;12.10;8.20;;;;;;;20.91;57.21;99887.56;5073818;28;20036;-84
2023/06/11 04:34:12;;;;;;;12.18;8.65;;;;;;;20.89;57.05;99885.09;5074601;28;20029;-84
2023/06/11 04:36:40;;;;;;;13.93;7.93;;;;;;;20.93;57.02;99880.50;5076175;28;20056;-84
2023/06/11 04:39:05;;;;;;;14.05;8.70;;;;;;;20.92;57.19;99884.44;5075620;28;20028;-84
2023/06/11 04:41:31;;;;;;;15.13;9.13;;;;;;;20.92;56.96;99876.13;5075346;28;21262;-84
2023/06/11 04:44:00;;;;;;;15.65;7.82;;;;;;;20.87;57.31;99876.31;5076036;28;20043;-85
2023/06/11 04:46:25;;;;;;;11.50;8.27;;;;;;;20.85;57.49;99868.31;5078272;28;20108;-84
2023/06/11 04:48:50;;;;;;;12.10;7.67;;;;;;;20.88;57.61;99878.75;5071106;28;20048;-85
2023/06/11 04:51:16;;;;;;;14.40;9.20;;;;;;;20.91;57.51;99873.69;5075591;28;20262;-84
2023/06/11 04:53:43;;;;;;;10.57;7.93;;;;;;;20.95;57.45;99869.13;5072402;28;20017;-84
2023/06/11 04:56:08;;;;;;;13.52;8.05;;;;;;;20.97;57.64;99887.03;5075391;28;20052;-84
2023/06/11 04:58:33;;;;;;;12.30;7.95;;;;;;;21.05;57.46;99874.28;5075366;28;20101;-83
2023/06/11 05:00:59;;;;;;;14.17;7.87;;;;;;;21.11;57.42;99874.94;5075528;28;20028;-84
2023/06/11 05:03:26;;;;;;;10.23;7.33;;;;;;;21.09;57.41;99878.03;5073558;28;20245;-84
2023/06/11 05:05:52;;;;;;;15.70;9.02;;;;;;;21.18;57.24;99879.94;5075299;28;20349;-85
2023/06/11 05:08:21;;;;;;;10.63;8.35;;;;;;;21.15;57.37;99884.22;5074625;28;20111;-83
2023/06/11 05:10:47;;;;;;;14.93;9.20;;;;;;;21.19;57.59;99878.81;5074906;28;20098;-84
2023/06/11 05:13:13;;;;;;;14.05;8.73;;;;;;;21.22;57.31;99887.25;5074667;28;20040;-84
2023/06/11 05:15:39;;;;;;;11.75;7.88;;;;;;;21.24;57.45;99889.69;5074902;28;20066;-83
2023/06/11 05:18:04;;;;;;;16.33;10.18;;;;;;;21.22;57.53;99891.97;5073255;28;20030;-84
2023/06/11 05:20:30;;;;;;;10.38;7.68;;;;;;;21.23;57.19;99888.06;5074980;28;20031;-83
2023/06/11 05:22:59;;;;;;;11.00;7.35;;;;;;;21.26;57.51;99890.16;5074401;28;20051;-82
2023/06/11 05:25:28;;;;;;;16.30;8.85;;;;;;;21.34;57.17;99888.50;5075279;28;20059;-83
2023/06/11 05:27:55;;;;;;;11.52;7.78;;;;;;;21.37;57.69;99889.78;5071210;28;20077;-84
2023/06/11 05:30:24;;;;;;;14.73;7.68;;;;;;;21.37;58.16;99887.84;5073912;28;20032;-84
2023/06/11 05:32:50;;;;;;;11.77;7.93;;;;;;;21.38;57.66;99886.66;5074051;28;20025;-84
2023/06/11 05:35:15;;;;;;;13.02;8.48;;;;;;;21.32;57.85;99888.81;5074293;28;20032;-84
2023/06/11 05:37:41;;;;;;;12.07;8.18;;;;;;;21.39;57.87;99884.72;5074580;28;20480;-84
2023/06/11 05:40:07;;;;;;;15.52;8.68;;;;;;;21.42;57.81;99890.41;5074184;28;20044;-84
2023/06/11 05:42:32;;;;;;;12.00;8.40;;;;;;;21.45;57.98;99897.25;5074271;28;20028;-78
2023/06/11 05:44:57;;;;;;;12.13;8.07;;;;;;;21.60;57.70;99890.28;5073681;28;20466;-79
2023/06/11 05:47:23;;;;;;;11.57;7.80;;;;;;;21.61;58.27;99891.09;5073753;28;20029;-80
2023/06/11 05:49:48;;;;;;;11.70;8.50;;;;;;;21.68;57.54;99894.16;5073313;28;20967;-80
2023/06/11 05:52:13;;;;;;;13.00;8.57;;;;;;;21.74;57.78;99889.22;5073834;28;20049;-80
2023/06/11 05:54:38;;;;;;;12.50;7.97;;;;;;;21.80;57.24;99888.66;5071601;28;20264;-80
2023/06/11 05:57:06;;;;;;;11.87;8.83;;;;;;;21.84;57.36;99896.34;5069007;28;20068;-82
2023/06/11 05:59:31;;;;;;;14.95;8.75;;;;;;;21.92;57.69;99901.03;5069553;28;20032;-80
2023/06/11 06:01:57;;;;;;;14.87;9.03;;;;;;;21.97;57.42;99895.25;5071440;28;20110;-80
2023/06/11 06:04:22;;;;;;;12.00;8.52;;;;;;;22.09;57.59;99902.03;5071813;28;20039;-81
2023/06/11 06:06:48;;;;;;;12.05;7.68;;;;;;;22.17;56.96;99895.56;5072164;28;20017;-80
2023/06/11 06:09:13;;;;;;;12.20;8.67;;;;;;;22.17;56.95;99906.66;5070003;28;20032;-81
2023/06/11 06:11:38;;;;;;;14.23;9.32;;;;;;;22.27;56.78;99899.91;5070637;28;20094;-80
2023/06/11 06:14:04;;;;;;;12.17;8.10;;;;;;;22.38;56.54;99900.28;5071412;28;20028;-80
2023/06/11 06:16:31;;;;;;;14.63;9.18;;;;;;;22.43;56.54;99905.63;5068254;28;20032;-81
2023/06/11 06:18:56;;;;;;;11.98;8.05;;;;;;;22.41;56.84;99907.94;5067585;28;20047;-84
2023/06/11 06:21:21;;;;;;;11.23;7.43;;;;;;;22.42;57.65;99917.06;5067588;28;20036;-83
2023/06/11 06:23:47;;;;;;;11.37;8.47;;;;;;;22.39;57.19;99918.56;5068047;28;20097;-80
2023/06/11 06:26:13;;;;;;;18.10;8.77;;;;;;;22.36;56.60;99919.25;5066460;28;20639;-82
2023/06/11 06:28:38;;;;;;;11.60;8.75;;;;;;;22.46;56.50;99912.44;5067055;28;20842;-83
2023/06/11 06:31:07;;;;;;;12.93;8.37;;;;;;;22.46;56.24;99910.47;5068161;28;20029;-80
2023/06/11 06:33:36;;;;;;;15.68;9.52;;;;;;;22.55;55.48;99912.34;5069082;28;20269;-80
2023/06/11 06:36:03;;;;;;;14.73;8.50;;;;;;;22.59;55.49;99910.53;5069886;28;20025;-81
2023/06/11 06:38:28;;;;;;;11.88;7.78;;;;;;;22.66;55.68;99912.78;5073859;28;20020;-81
2023/06/11 06:40:53;;;;;;;14.10;7.83;;;;;;;22.71;55.46;99913.38;5064297;28;20297;-81
2023/06/11 06:43:18;;;;;;;12.90;7.50;;;;;;;22.80;56.23;99918.00;5063083;28;20036;-80
2023/06/11 06:45:44;;;;;;;13.00;8.47;;;;;;;22.82;55.93;99921.25;5063697;28;20602;-82
2023/06/11 06:48:09;;;;;;;12.30;7.23;;;;;;;22.82;55.48;99918.47;5063091;28;20128;-83
2023/06/11 06:50:34;;;;;;;10.93;7.57;;;;;;;22.86;55.85;99919.41;5062986;28;20270;-81
2023/06/11 06:52:59;;;;;;;11.48;8.05;;;;;;;22.94;54.95;99920.47;5063098;28;20140;-81
2023/06/11 06:55:25;;;;;;;11.47;7.80;;;;;;;23.00;55.00;99919.06;5065868;28;20036;-79
2023/06/11 06:57:50;;;;;;;12.35;8.00;;;;;;;23.03;54.88;99923.09;5063083;28;20622;-77
2023/06/11 07:00:17;;;;;;;13.47;7.83;;;;;;;23.09;54.54;99922.53;5062433;28;20044;-77
2023/06/11 07:02:42;;;;;;;10.27;7.35;;;;;;;23.12;54.17;99934.13;5062781;28;20029;-81
2023/06/11 07:05:08;;;;;;;10.43;7.77;;;;;;;23.10;53.76;99931.69;5063656;28;20423;-81
2023/06/11 07:07:33;;;;;;;13.68;7.32;;;;;;;23.19;53.84;99931.56;5070918;28;20241;-82
2023/06/11 07:09:58;;;;;;;14.33;9.10;;;;;;;23.24;54.08;99927.75;5075449;28;20070;-82
2023/06/11 07:12:24;;;;;;;11.00;7.23;;;;;;;23.29;54.53;99927.53;5076119;28;20328;-81
2023/06/11 07:14:49;;;;;;;13.60;8.27;;;;;;;23.36;53.97;99936.09;5075032;28;20032;-82
2023/06/11 07:17:15;;;;;;;14.32;8.02;;;;;;;23.38;53.57;99933.78;5074928;28;20115;-80
2023/06/11 07:19:40;;;;;;;10.55;7.75;;;;;;;23.39;53.64;99935.41;5075982;28;20029;-83
2023/06/11 07:22:05;;;;;;;16.23;8.63;;;;;;;23.44;53.68;99934.34;5076498;28;20067;-82
2023/06/11 07:24:31;;;;;;;11.97;7.23;;;;;;;23.49;52.61;99934.16;5077083;28;20633;-84
2023/06/11 07:26:56;;;;;;;12.37;7.30;;;;;;;23.50;51.44;99929.41;5077673;28;20291;-91
2023/06/11 07:29:21;;;;;;;13.27;8.00;;;;;;;23.49;51.78;99933.34;5076295;28;20485;-78
2023/06/11 07:31:46;;;;;;;17.83;7.13;;;;;;;23.55;51.41;99937.53;5075849;28;20020;-85
2023/06/11 07:34:13;;;;;;;11.27;7.47;;;;;;;23.57;50.68;99923.25;5077287;28;20949;-84
2023/06/11 07:36:38;;;;;;;16.90;6.57;;;;;;;23.57;50.45;99934.38;5076069;28;20017;-87
2023/06/11 07:39:03;;;;;;;27.77;8.57;;;;;;;23.62;49.54;99926.59;5076915;28;20067;-87
2023/06/11 07:41:28;;;;;;;14.23;6.70;;;;;;;23.62;49.47;99936.91;5076750;28;21281;-87
2023/06/11 07:43:54;;;;;;;10.25;7.20;;;;;;;23.58;49.80;99941.56;5075893;28;20028;-86
2023/06/11 07:46:19;;;;;;;11.57;6.67;;;;;;;23.61;50.18;99947.25;5076790;28;20102;-86
2023/06/11 07:48:44;;;;;;;10.07;5.87;;;;;;;23.69;49.52;99945.50;5075730;28;20024;-85
2023/06/11 07:51:11;;;;;;;16.63;6.82;;;;;;;23.75;49.24;99935.75;5076017;28;20269;-85
2023/06/11 07:53:37;;;;;;;10.70;6.75;;;;;;;23.78;48.98;99939.78;5075667;28;20062;-85
2023/06/11 07:56:02;;;;;;;9.32;5.90;;;;;;;23.88;49.41;99936.50;5076185;28;20066;-87
2023/06/11 07:58:28;;;;;;;11.25;5.70;;;;;;;23.97;49.08;99935.56;5075641;28;20052;-87
2023/06/11 08:00:53;;;;;;;11.10;6.43;;;;;;;24.05;49.07;99940.19;5075878;28;20027;-87
2023/06/11 08:03:18;;;;;;;12.27;6.40;;;;;;;24.07;48.94;99932.28;5075900;28;20036;-87
2023/06/11 08:05:44;;;;;;;11.03;7.27;;;;;;;24.11;49.11;99952.69;5074873;28;20261;-87
2023/06/11 08:08:09;;;;;;;10.37;6.57;;;;;;;24.16;48.73;99936.91;5074155;28;20024;-86
2023/06/11 08:10:34;;;;;;;9.63;5.97;;;;;;;24.21;48.50;99936.63;5075849;28;20250;-85
2023/06/11 08:12:59;;;;;;;10.10;5.65;;;;;;;24.21;47.81;99933.84;5073818;28;20073;-78
2023/06/11 08:15:25;;;;;;;10.45;6.13;;;;;;;24.28;47.99;99936.88;5071638;28;20028;-78
2023/06/11 08:17:50;;;;;;;8.77;5.47;;;;;;;24.33;48.06;99936.63;5072087;28;20039;-78
2023/06/11 08:20:16;;;;;;;10.23;5.60;;;;;;;24.51;48.42;99946.66;5070675;28;20288;-79
2023/06/11 08:22:41;;;;;;;10.10;6.15;;;;;;;24.55;48.23;99942.00;5073795;28;20048;-87
2023/06/11 08:25:09;;;;;;;9.57;5.47;;;;;;;24.60;47.48;99939.75;5076247;28;20029;-87
2023/06/11 08:27:34;;;;;;;9.57;6.32;;;;;;;24.58;47.37;99930.94;5076574;28;20053;-87
2023/06/11 08:30:00;;;;;;;11.75;5.95;;;;;;;24.65;47.61;99929.50;5077998;28;20098;-87
2023/06/11 08:32:25;;;;;;;35.22;6.65;;;;;;;24.72;47.52;99929.69;5076410;28;20047;-87
2023/06/11 08:34:50;;;;;;;7.53;5.57;;;;;;;24.71;46.56;99937.22;5076123;28;20024;-88
2023/06/11 08:37:15;;;;;;;8.37;5.07;;;;;;;24.74;45.93;99926.53;5076038;28;20490;-88
2023/06/11 08:39:41;;;;;;;7.27;5.33;;;;;;;24.72;45.37;99929.69;5075546;28;20020;-86
2023/06/11 08:42:07;;;;;;;10.15;6.00;;;;;;;24.79;45.64;99932.69;5075884;28;20283;-88
2023/06/11 08:44:34;;;;;;;11.55;6.60;;;;;;;24.86;45.99;99926.47;5076311;28;20093;-88
2023/06/11 08:47:02;;;;;;;16.15;7.05;;;;;;;24.86;44.71;99934.00;5075969;28;20029;-88
2023/06/11 08:49:27;;;;;;;7.57;5.55;;;;;;;24.90;44.83;99923.75;5075911;28;20041;-88
2023/06/11 08:51:55;;;;;;;11.68;5.88;;;;;;;24.95;43.93;99938.28;5074205;28;20052;-88
2023/06/11 08:54:20;;;;;;;10.93;5.60;;;;;;;24.95;43.91;99932.72;5075649;28;20025;-88
2023/06/11 08:56:45;;;;;;;9.05;5.65;;;;;;;25.02;43.98;99934.06;5075939;28;20526;-88
2023/06/11 08:59:11;;;;;;;14.48;6.05;;;;;;;25.16;44.25;99930.81;5075542;28;20059;-87
2023/06/11 09:01:38;;;;;;;12.63;6.10;;;;;;;25.26;44.33;99929.47;5075865;28;20032;-86
2023/06/11 09:04:03;;;;;;;13.18;6.25;;;;;;;25.40;44.59;99923.41;5072884;28;20021;-88
2023/06/11 09:06:29;;;;;;;11.32;5.88;;;;;;;25.48;43.71;99930.78;5075875;28;20088;-87
2023/06/11 09:09:07;;;;;;;11.02;5.00;;;;;;;25.58;42.44;99925.78;5075493;28;20032;-87
2023/06/11 09:11:38;;;;;;;8.90;5.97;;;;;;;25.57;41.56;99927.75;5075034;28;20489;-87
2023/06/11 09:14:04;;;;;;;9.05;6.05;;;;;;;25.62;42.25;99932.25;5075214;28;20028;-88
2023/06/11 09:16:41;;;;;;;10.02;6.28;;;;;;;25.71;41.11;99932.88;5075217;28;20052;-88
2023/06/11 09:19:14;;;;;;;14.25;6.20;;;;;;;25.75;41.13;99933.00;5075185;28;20048;-88
2023/06/11 09:21:49;;;;;;;14.88;6.50;;;;;;;25.87;40.98;99935.63;5075517;28;20103;-88
2023/06/11 09:24:14;;;;;;;11.35;6.30;;;;;;;25.89;40.75;99924.13;5059367;28;20020;-78
2023/06/11 09:26:48;;;;;;;8.87;5.57;;;;;;;26.00;40.48;99925.13;5069776;28;20115;-78
2023/06/11 09:29:14;;;;;;;12.52;5.38;;;;;;;26.14;41.35;99932.19;5072849;28;20028;-78
2023/06/11 09:31:39;;;;;;;9.57;5.60;;;;;;;26.23;41.59;99921.63;5072124;28;20093;-78
2023/06/11 09:34:06;;;;;;;10.30;6.35;;;;;;;26.34;42.09;99924.59;5072198;28;20059;-78
2023/06/11 09:36:31;;;;;;;11.00;6.20;;;;;;;26.41;41.94;99923.16;5073258;28;20036;-78
2023/06/11 09:38:56;;;;;;;9.97;5.83;;;;;;;26.46;41.53;99929.25;5073572;28;20044;-78
2023/06/11 09:41:22;;;;;;;9.88;6.28;;;;;;;26.53;40.75;99924.97;5072086;28;20123;-78
2023/06/11 09:43:52;;;;;;;16.60;6.37;;;;;;;26.57;41.13;99925.84;5073324;28;20025;-79
2023/06/11 09:46:17;;;;;;;10.93;6.65;;;;;;;26.66;40.21;99929.22;5075085;28;20263;-78
2023/06/11 09:48:44;;;;;;;13.68;6.13;;;;;;;26.76;40.18;99926.97;5072610;28;20025;-78
2023/06/11 09:51:10;;;;;;;9.35;6.05;;;;;;;26.81;39.94;99929.47;5072749;28;21224;-79
2023/06/11 09:53:36;;;;;;;10.40;6.78;;;;;;;26.77;39.54;99923.00;5072612;28;20035;-78
2023/06/11 09:56:01;;;;;;;10.60;5.53;;;;;;;26.83;39.39;99921.50;5071476;28;20032;-78
2023/06/11 09:58:29;;;;;;;8.20;5.75;;;;;;;26.99;39.70;99918.56;5069958;28;20044;-78
2023/06/11 10:01:00;;;;;;;11.73;5.72;;;;;;;27.06;38.99;99917.91;5070922;28;20038;-79
2023/06/11 10:03:26;;;;;;;10.50;5.80;;;;;;;27.15;39.02;99921.25;5069511;28;20029;-79
2023/06/11 10:05:52;;;;;;;8.82;5.10;;;;;;;27.17;37.31;99918.09;5071354;28;20027;-79
2023/06/11 10:08:27;;;;;;;12.23;6.75;;;;;;;27.20;36.80;99914.53;5071029;28;20037;-78
2023/06/11 10:10:56;;;;;;;9.45;5.75;;;;;;;27.18;37.37;99918.91;5071561;28;20078;-78
2023/06/11 10:13:32;;;;;;;9.52;6.05;;;;;;;27.35;36.96;99921.19;5071942;28;20024;-80
2023/06/11 10:16:01;;;;;;;12.40;7.25;;;;;;;27.49;35.92;99922.56;5064922;28;20028;-80
2023/06/11 10:18:27;;;;;;;20.75;7.05;;;;;;;27.43;36.93;99929.66;5073238;28;21385;-81
2023/06/11 10:20:54;;;;;;;76.82;10.15;;;;;;;27.42;36.04;99919.69;5073616;28;20101;-80
2023/06/11 10:23:20;;;;;;;41.92;8.10;;;;;;;27.37;36.43;99924.41;5073507;28;20033;-79
2023/06/11 10:25:54;;;;;;;13.07;7.35;;;;;;;27.20;35.74;99914.53;5073147;28;20229;-80
2023/06/11 10:28:21;;;;;;;10.27;6.38;;;;;;;27.34;35.61;99922.34;5073328;28;20044;-80
2023/06/11 10:30:53;;;;;;;14.60;7.28;;;;;;;27.34;35.66;99921.53;5073079;28;20025;-80
2023/06/11 10:33:20;;;;;;;10.05;6.50;;;;;;;27.50;36.17;99924.19;5073003;28;20029;-80
2023/06/11 10:35:46;;;;;;;10.23;7.07;;;;;;;27.53;35.90;99929.03;5073165;28;20035;-79
2023/06/11 10:38:13;;;;;;;14.02;6.45;;;;;;;27.32;35.27;99924.72;5072863;28;20040;-79
2023/06/11 10:40:39;;;;;;;8.35;5.78;;;;;;;27.33;34.94;99937.53;5072834;28;20462;-79
2023/06/11 10:43:21;;;;;;;21.73;7.50;;;;;;;27.56;34.67;99928.25;5073232;28;20029;-84
2023/06/11 10:45:59;;;;;;;9.43;7.22;;;;;;;27.67;34.50;99927.59;5073697;28;20087;-85
2023/06/11 10:48:28;;;;;;;10.32;6.85;;;;;;;27.67;34.73;99927.59;5073863;28;20024;-85
2023/06/11 10:51:08;;;;;;;10.93;6.88;;;;;;;27.76;34.42;99930.97;5073692;28;20653;-86
2023/06/11 10:53:37;;;;;;;10.95;7.22;;;;;;;27.92;34.08;99929.97;5073724;28;20036;-85
2023/06/11 10:56:04;;;;;;;25.60;8.93;;;;;;;28.08;34.00;99924.97;5070163;28;20143;-86
2023/06/11 10:58:31;;;;;;;13.90;6.88;;;;;;;28.20;34.33;99932.31;5073669;28;20262;-86
2023/06/11 11:00:56;;;;;;;18.27;9.38;;;;;;;28.19;33.53;99921.50;5071513;28;20020;-76
2023/06/11 11:03:22;;;;;;;15.18;6.10;;;;;;;28.17;36.60;99921.06;5062999;28;20028;-75
2023/06/11 11:05:51;;;;;;;10.45;5.40;;;;;;;28.26;37.80;99923.56;5062875;28;20129;-75
2023/06/11 11:08:16;;;;;;;9.48;6.25;;;;;;;28.25;36.11;99919.16;5062284;28;20039;-75
2023/06/11 11:10:42;;;;;;;14.45;6.72;;;;;;;28.38;36.72;99916.88;5062777;28;20033;-76
2023/06/11 11:13:07;;;;;;;17.75;6.72;;;;;;;28.51;35.14;99917.44;5062761;28;20060;-75
2023/06/11 11:15:33;;;;;;;10.38;7.00;;;;;;;28.49;37.12;99909.44;5062893;28;20159;-76
2023/06/11 11:17:58;;;;;;;9.68;6.45;;;;;;;28.53;35.92;99913.09;5062014;28;20494;-76
2023/06/11 11:20:24;;;;;;;11.87;6.97;;;;;;;28.63;35.75;99905.16;5062640;28;20036;-79
2023/06/11 11:22:52;;;;;;;9.85;6.57;;;;;;;28.81;36.80;99910.91;5063310;28;20260;-83